Saint-Sylvestre, Canada
Current Conditions -  °F | °C
As of 2:00 AM on Monday 22 Dec 2014 (Local Time) from CYQB Reporting Station
Light Snow Light Snow  
Wind Chill: 16°   Ceiling: 1100
Heat Index: 16°   Visibility: 15mi
Dew Point: 12°   Wind: 0mph
Humidity: 86%   Direction: NA
Pressure: 30.42"   Gusts: NA
Location:  46.37°N, 71.23°W
Report Text: CYQB 220700Z 00000KT 15SM -SN OVC011 M09/M11 A3042 RMK SC8 SLP309
Loading
Personal Weather Stations






























Interactive Weather Map New forecast layout! Learn more

10-Day Weather Forecast

Advertisements
Track Severe Weather on mobile